sensor_id;sensor_type;location;lat;lon;timestamp;pressure;altitude;pressure_sealevel;temperature;humidity
32933;BME280;19444;50.518;10.870;2023-05-22T00:02:44;96338.34;;;17.53;100.00
32933;BME280;19444;50.518;10.870;2023-05-22T00:05:41;96342.75;;;17.61;100.00
32933;BME280;19444;50.518;10.870;2023-05-22T00:08:38;96340.97;;;17.69;100.00
32933;BME280;19444;50.518;10.870;2023-05-22T00:11:35;96344.75;;;17.64;100.00
32933;BME280;19444;50.518;10.870;2023-05-22T00:14:32;96331.50;;;17.59;100.00
32933;BME280;19444;50.518;10.870;2023-05-22T00:17:29;96336.50;;;17.96;100.00
32933;BME280;19444;50.518;10.870;2023-05-22T00:20:26;96336.56;;;17.61;100.00
32933;BME280;19444;50.518;10.870;2023-05-22T00:23:24;96332.78;;;17.66;100.00
32933;BME280;19444;50.518;10.870;2023-05-22T00:26:23;96336.19;;;17.62;100.00
32933;BME280;19444;50.518;10.870;2023-05-22T00:29:20;96343.28;;;17.13;100.00
32933;BME280;19444;50.518;10.870;2023-05-22T00:32:17;96334.63;;;17.42;100.00
32933;BME280;19444;50.518;10.870;2023-05-22T00:35:14;96341.03;;;17.34;100.00
32933;BME280;19444;50.518;10.870;2023-05-22T00:38:30;96340.81;;;17.23;100.00
32933;BME280;19444;50.518;10.870;2023-05-22T00:41:29;96341.75;;;17.31;100.00
32933;BME280;19444;50.518;10.870;2023-05-22T00:44:25;96338.81;;;17.20;100.00
32933;BME280;19444;50.518;10.870;2023-05-22T00:47:22;96337.72;;;17.05;100.00
32933;BME280;19444;50.518;10.870;2023-05-22T00:50:19;96339.22;;;17.03;100.00
32933;BME280;19444;50.518;10.870;2023-05-22T00:53:20;96336.25;;;16.92;100.00
32933;BME280;19444;50.518;10.870;2023-05-22T00:56:17;96340.03;;;16.40;100.00
32933;BME280;19444;50.518;10.870;2023-05-22T00:59:15;96337.06;;;16.93;100.00
32933;BME280;19444;50.518;10.870;2023-05-22T01:02:14;96333.75;;;16.84;100.00
32933;BME280;19444;50.518;10.870;2023-05-22T01:05:12;96336.59;;;16.91;100.00
32933;BME280;19444;50.518;10.870;2023-05-22T01:08:13;96338.31;;;16.99;100.00
32933;BME280;19444;50.518;10.870;2023-05-22T01:11:20;96339.94;;;16.84;100.00
32933;BME280;19444;50.518;10.870;2023-05-22T01:14:39;96339.59;;;16.70;100.00
32933;BME280;19444;50.518;10.870;2023-05-22T01:18:10;96344.91;;;16.82;100.00
32933;BME280;19444;50.518;10.870;2023-05-22T01:21:22;96339.94;;;16.68;100.00
32933;BME280;19444;50.518;10.870;2023-05-22T01:31:46;96338.19;;;16.60;100.00
32933;BME280;19444;50.518;10.870;2023-05-22T01:34:46;96344.28;;;16.73;100.00
32933;BME280;19444;50.518;10.870;2023-05-22T01:37:47;96338.63;;;16.78;100.00
32933;BME280;19444;50.518;10.870;2023-05-22T01:40:45;96337.25;;;16.68;100.00
32933;BME280;19444;50.518;10.870;2023-05-22T01:43:43;96339.50;;;16.66;100.00
32933;BME280;19444;50.518;10.870;2023-05-22T01:46:41;96333.56;;;16.61;100.00
32933;BME280;19444;50.518;10.870;2023-05-22T01:49:37;96341.50;;;16.38;100.00
32933;BME280;19444;50.518;10.870;2023-05-22T01:52:52;96343.13;;;16.27;100.00
32933;BME280;19444;50.518;10.870;2023-05-22T01:56:22;96336.00;;;16.34;100.00
32933;BME280;19444;50.518;10.870;2023-05-22T01:59:39;96334.25;;;16.26;100.00
32933;BME280;19444;50.518;10.870;2023-05-22T02:02:42;96343.50;;;16.41;100.00
32933;BME280;19444;50.518;10.870;2023-05-22T02:05:40;96344.69;;;16.12;100.00
32933;BME280;19444;50.518;10.870;2023-05-22T02:08:40;96351.41;;;16.18;100.00
32933;BME280;19444;50.518;10.870;2023-05-22T02:11:38;96353.41;;;15.77;100.00
32933;BME280;19444;50.518;10.870;2023-05-22T02:14:36;96338.25;;;16.01;100.00
32933;BME280;19444;50.518;10.870;2023-05-22T02:17:39;96340.50;;;16.14;100.00
32933;BME280;19444;50.518;10.870;2023-05-22T02:20:37;96347.72;;;15.95;100.00
32933;BME280;19444;50.518;10.870;2023-05-22T02:23:34;96347.47;;;15.72;100.00
32933;BME280;19444;50.518;10.870;2023-05-22T02:26:32;96347.28;;;15.52;100.00
32933;BME280;19444;50.518;10.870;2023-05-22T02:29:29;96351.03;;;15.48;100.00
32933;BME280;19444;50.518;10.870;2023-05-22T02:32:26;96347.81;;;15.30;100.00
32933;BME280;19444;50.518;10.870;2023-05-22T02:35:24;96349.47;;;15.47;100.00
32933;BME280;19444;50.518;10.870;2023-05-22T02:38:21;96342.00;;;15.56;100.00
32933;BME280;19444;50.518;10.870;2023-05-22T02:41:17;96343.53;;;15.69;100.00
32933;BME280;19444;50.518;10.870;2023-05-22T02:44:14;96350.38;;;15.39;100.00
32933;BME280;19444;50.518;10.870;2023-05-22T02:47:11;96335.69;;;15.64;100.00
32933;BME280;19444;50.518;10.870;2023-05-22T02:50:08;96337.09;;;15.46;100.00
32933;BME280;19444;50.518;10.870;2023-05-22T02:53:05;96337.38;;;15.56;100.00
32933;BME280;19444;50.518;10.870;2023-05-22T02:56:03;96332.66;;;15.53;100.00
32933;BME280;19444;50.518;10.870;2023-05-22T02:59:01;96329.41;;;15.48;100.00
32933;BME280;19444;50.518;10.870;2023-05-22T03:01:58;96329.78;;;15.46;100.00
32933;BME280;19444;50.518;10.870;2023-05-22T03:04:55;96331.03;;;15.77;100.00
32933;BME280;19444;50.518;10.870;2023-05-22T03:07:57;96333.97;;;15.72;100.00
32933;BME280;19444;50.518;10.870;2023-05-22T03:11:00;96326.41;;;15.77;100.00
32933;BME280;19444;50.518;10.870;2023-05-22T03:13:57;96326.50;;;15.41;100.00
32933;BME280;19444;50.518;10.870;2023-05-22T03:16:54;96322.31;;;15.55;100.00
32933;BME280;19444;50.518;10.870;2023-05-22T03:19:51;96333.69;;;15.49;100.00
32933;BME280;19444;50.518;10.870;2023-05-22T03:22:48;96328.59;;;15.59;100.00
32933;BME280;19444;50.518;10.870;2023-05-22T03:25:46;96323.94;;;15.72;100.00
32933;BME280;19444;50.518;10.870;2023-05-22T03:28:43;96331.03;;;15.77;100.00
32933;BME280;19444;50.518;10.870;2023-05-22T03:31:40;96325.84;;;15.72;100.00
32933;BME280;19444;50.518;10.870;2023-05-22T03:34:37;96328.88;;;15.98;100.00
32933;BME280;19444;50.518;10.870;2023-05-22T03:37:34;96335.28;;;15.78;100.00
32933;BME280;19444;50.518;10.870;2023-05-22T03:40:31;96338.69;;;15.75;100.00
32933;BME280;19444;50.518;10.870;2023-05-22T03:43:27;96335.66;;;15.76;100.00
32933;BME280;19444;50.518;10.870;2023-05-22T03:46:24;96324.66;;;15.29;100.00
32933;BME280;19444;50.518;10.870;2023-05-22T03:49:22;96325.56;;;15.61;100.00
32933;BME280;19444;50.518;10.870;2023-05-22T03:52:19;96324.03;;;15.48;100.00
32933;BME280;19444;50.518;10.870;2023-05-22T03:55:16;96322.19;;;15.52;100.00
32933;BME280;19444;50.518;10.870;2023-05-22T03:58:13;96325.94;;;15.47;100.00
32933;BME280;19444;50.518;10.870;2023-05-22T04:01:10;96318.84;;;15.43;100.00
32933;BME280;19444;50.518;10.870;2023-05-22T04:04:09;96318.63;;;15.48;100.00
32933;BME280;19444;50.518;10.870;2023-05-22T04:07:07;96315.38;;;15.42;100.00
32933;BME280;19444;50.518;10.870;2023-05-22T04:10:05;96319.50;;;15.52;100.00
32933;BME280;19444;50.518;10.870;2023-05-22T04:13:02;96324.47;;;15.50;100.00
32933;BME280;19444;50.518;10.870;2023-05-22T04:16:08;96323.81;;;15.41;100.00
32933;BME280;19444;50.518;10.870;2023-05-22T04:19:06;96314.97;;;15.68;100.00
32933;BME280;19444;50.518;10.870;2023-05-22T04:22:05;96318.44;;;15.69;100.00
32933;BME280;19444;50.518;10.870;2023-05-22T04:25:02;96316.56;;;15.85;100.00
32933;BME280;19444;50.518;10.870;2023-05-22T04:27:59;96307.88;;;16.07;100.00
32933;BME280;19444;50.518;10.870;2023-05-22T04:30:59;96314.19;;;15.68;100.00
32933;BME280;19444;50.518;10.870;2023-05-22T04:33:56;96318.09;;;15.70;100.00
32933;BME280;19444;50.518;10.870;2023-05-22T04:36:55;96323.63;;;15.74;100.00
32933;BME280;19444;50.518;10.870;2023-05-22T04:39:52;96324.91;;;15.80;100.00
32933;BME280;19444;50.518;10.870;2023-05-22T04:42:53;96318.53;;;16.16;100.00
32933;BME280;19444;50.518;10.870;2023-05-22T04:45:51;96314.78;;;16.05;100.00
32933;BME280;19444;50.518;10.870;2023-05-22T04:48:48;96322.56;;;15.78;100.00
32933;BME280;19444;50.518;10.870;2023-05-22T04:51:45;96317.84;;;16.03;100.00
32933;BME280;19444;50.518;10.870;2023-05-22T04:54:42;96322.47;;;16.18;100.00
32933;BME280;19444;50.518;10.870;2023-05-22T04:57:41;96322.03;;;16.01;100.00
32933;BME280;19444;50.518;10.870;2023-05-22T05:00:40;96327.69;;;16.27;100.00
32933;BME280;19444;50.518;10.870;2023-05-22T05:03:38;96320.56;;;16.35;100.00
32933;BME280;19444;50.518;10.870;2023-05-22T05:06:35;96311.84;;;16.41;100.00
32933;BME280;19444;50.518;10.870;2023-05-22T05:09:33;96317.94;;;16.38;100.00
32933;BME280;19444;50.518;10.870;2023-05-22T05:12:30;96311.81;;;16.73;100.00
32933;BME280;19444;50.518;10.870;2023-05-22T05:15:27;96311.75;;;16.85;100.00
32933;BME280;19444;50.518;10.870;2023-05-22T05:18:25;96322.13;;;16.83;100.00
32933;BME280;19444;50.518;10.870;2023-05-22T05:21:26;96318.94;;;16.97;100.00
32933;BME280;19444;50.518;10.870;2023-05-22T05:24:23;96315.88;;;16.98;100.00
32933;BME280;19444;50.518;10.870;2023-05-22T05:27:20;96313.34;;;17.05;100.00
32933;BME280;19444;50.518;10.870;2023-05-22T05:30:17;96312.44;;;17.17;100.00
32933;BME280;19444;50.518;10.870;2023-05-22T05:33:16;96308.94;;;17.17;100.00
32933;BME280;19444;50.518;10.870;2023-05-22T05:36:13;96313.22;;;17.18;100.00
32933;BME280;19444;50.518;10.870;2023-05-22T05:39:10;96317.34;;;17.12;100.00
32933;BME280;19444;50.518;10.870;2023-05-22T05:42:07;96308.72;;;17.25;100.00
32933;BME280;19444;50.518;10.870;2023-05-22T05:45:04;96328.53;;;17.10;100.00
32933;BME280;19444;50.518;10.870;2023-05-22T05:48:01;96322.31;;;16.74;100.00
32933;BME280;19444;50.518;10.870;2023-05-22T05:50:58;96321.69;;;17.16;100.00
32933;BME280;19444;50.518;10.870;2023-05-22T05:53:55;96327.25;;;16.88;100.00
32933;BME280;19444;50.518;10.870;2023-05-22T05:56:52;96325.03;;;17.10;100.00
32933;BME280;19444;50.518;10.870;2023-05-22T05:59:49;96326.53;;;17.07;100.00
32933;BME280;19444;50.518;10.870;2023-05-22T06:02:46;96330.13;;;16.95;100.00
32933;BME280;19444;50.518;10.870;2023-05-22T06:05:46;96328.06;;;17.43;100.00
32933;BME280;19444;50.518;10.870;2023-05-22T06:08:43;96323.06;;;17.64;100.00
32933;BME280;19444;50.518;10.870;2023-05-22T06:11:40;96317.34;;;17.85;100.00
32933;BME280;19444;50.518;10.870;2023-05-22T06:14:38;96325.22;;;17.55;100.00
32933;BME280;19444;50.518;10.870;2023-05-22T06:17:36;96314.31;;;17.90;100.00
32933;BME280;19444;50.518;10.870;2023-05-22T06:20:33;96313.25;;;17.95;100.00
32933;BME280;19444;50.518;10.870;2023-05-22T06:23:30;96311.22;;;17.92;100.00
32933;BME280;19444;50.518;10.870;2023-05-22T06:26:28;96305.34;;;18.09;100.00
32933;BME280;19444;50.518;10.870;2023-05-22T06:29:25;96312.28;;;18.07;100.00
32933;BME280;19444;50.518;10.870;2023-05-22T06:32:22;96302.72;;;18.36;100.00
32933;BME280;19444;50.518;10.870;2023-05-22T06:35:19;96298.69;;;18.49;100.00
32933;BME280;19444;50.518;10.870;2023-05-22T06:38:16;96296.91;;;18.60;100.00
32933;BME280;19444;50.518;10.870;2023-05-22T06:41:13;96293.59;;;18.70;100.00
32933;BME280;19444;50.518;10.870;2023-05-22T06:44:10;96297.63;;;18.80;100.00
32933;BME280;19444;50.518;10.870;2023-05-22T06:47:07;96299.34;;;18.92;100.00
32933;BME280;19444;50.518;10.870;2023-05-22T06:50:05;96290.47;;;18.95;100.00
32933;BME280;19444;50.518;10.870;2023-05-22T06:53:02;96295.00;;;19.14;100.00
32933;BME280;19444;50.518;10.870;2023-05-22T06:55:59;96297.50;;;19.26;100.00
32933;BME280;19444;50.518;10.870;2023-05-22T06:58:56;96299.97;;;19.38;100.00
32933;BME280;19444;50.518;10.870;2023-05-22T07:01:54;96296.66;;;19.52;100.00
32933;BME280;19444;50.518;10.870;2023-05-22T07:04:51;96302.78;;;19.75;100.00
32933;BME280;19444;50.518;10.870;2023-05-22T07:07:49;96304.00;;;19.81;100.00
32933;BME280;19444;50.518;10.870;2023-05-22T07:10:46;96297.94;;;19.95;100.00
32933;BME280;19444;50.518;10.870;2023-05-22T07:13:43;96300.69;;;19.99;100.00
32933;BME280;19444;50.518;10.870;2023-05-22T07:16:40;96297.38;;;20.16;100.00
32933;BME280;19444;50.518;10.870;2023-05-22T07:19:37;96298.47;;;20.49;100.00
32933;BME280;19444;50.518;10.870;2023-05-22T07:22:34;96295.25;;;20.87;100.00
32933;BME280;19444;50.518;10.870;2023-05-22T07:25:31;96293.44;;;20.54;100.00
32933;BME280;19444;50.518;10.870;2023-05-22T07:28:29;96295.22;;;20.80;100.00
32933;BME280;19444;50.518;10.870;2023-05-22T07:31:26;96292.75;;;21.23;100.00
32933;BME280;19444;50.518;10.870;2023-05-22T07:34:23;96288.22;;;21.48;100.00
32933;BME280;19444;50.518;10.870;2023-05-22T07:37:27;96286.75;;;21.76;100.00
32933;BME280;19444;50.518;10.870;2023-05-22T07:40:24;96283.75;;;22.17;97.33
32933;BME280;19444;50.518;10.870;2023-05-22T07:43:22;96280.97;;;22.02;95.71
32933;BME280;19444;50.518;10.870;2023-05-22T07:46:19;96279.34;;;21.69;83.63
32933;BME280;19444;50.518;10.870;2023-05-22T07:49:16;96281.81;;;22.13;77.90
32933;BME280;19444;50.518;10.870;2023-05-22T07:52:15;96278.28;;;22.09;74.29
32933;BME280;19444;50.518;10.870;2023-05-22T07:55:12;96280.63;;;22.07;77.97
32933;BME280;19444;50.518;10.870;2023-05-22T07:58:09;96278.69;;;22.11;78.34
32933;BME280;19444;50.518;10.870;2023-05-22T08:01:07;96280.25;;;22.27;74.17
32933;BME280;19444;50.518;10.870;2023-05-22T08:04:05;96274.41;;;22.78;76.34
32933;BME280;19444;50.518;10.870;2023-05-22T08:07:02;96280.22;;;23.19;79.02
32933;BME280;19444;50.518;10.870;2023-05-22T08:10:05;96280.91;;;23.59;78.84
32933;BME280;19444;50.518;10.870;2023-05-22T08:13:03;96281.81;;;24.08;72.02
32933;BME280;19444;50.518;10.870;2023-05-22T08:16:02;96276.97;;;24.33;64.63
32933;BME280;19444;50.518;10.870;2023-05-22T08:18:59;96280.28;;;24.59;62.99
32933;BME280;19444;50.518;10.870;2023-05-22T08:21:56;96270.69;;;24.81;64.12
32933;BME280;19444;50.518;10.870;2023-05-22T08:24:54;96273.84;;;24.80;65.50
32933;BME280;19444;50.518;10.870;2023-05-22T08:27:51;96270.53;;;24.99;69.79
32933;BME280;19444;50.518;10.870;2023-05-22T08:30:47;96266.28;;;24.91;63.45
32933;BME280;19444;50.518;10.870;2023-05-22T08:33:44;96267.53;;;24.83;60.97
32933;BME280;19444;50.518;10.870;2023-05-22T08:36:41;96264.91;;;24.72;60.57
32933;BME280;19444;50.518;10.870;2023-05-22T08:39:38;96261.06;;;25.07;62.04
32933;BME280;19444;50.518;10.870;2023-05-22T08:42:35;96263.22;;;25.27;72.76
32933;BME280;19444;50.518;10.870;2023-05-22T08:45:33;96251.47;;;25.91;72.70
32933;BME280;19444;50.518;10.870;2023-05-22T08:48:31;96246.88;;;26.34;60.75
32933;BME280;19444;50.518;10.870;2023-05-22T08:51:28;96253.28;;;26.01;57.14
32933;BME280;19444;50.518;10.870;2023-05-22T08:54:28;96247.72;;;26.04;63.32
32933;BME280;19444;50.518;10.870;2023-05-22T08:57:26;96248.59;;;26.52;61.15
32933;BME280;19444;50.518;10.870;2023-05-22T09:00:23;96239.78;;;27.07;58.55
32933;BME280;19444;50.518;10.870;2023-05-22T09:03:20;96236.03;;;26.98;53.70
32933;BME280;19444;50.518;10.870;2023-05-22T09:06:18;96242.69;;;27.20;56.59
32933;BME280;19444;50.518;10.870;2023-05-22T09:09:15;96233.00;;;27.32;60.38
32933;BME280;19444;50.518;10.870;2023-05-22T09:12:12;96235.78;;;27.71;50.60
32933;BME280;19444;50.518;10.870;2023-05-22T09:15:10;96231.69;;;27.40;47.36
32933;BME280;19444;50.518;10.870;2023-05-22T09:18:07;96230.78;;;27.07;47.00
32933;BME280;19444;50.518;10.870;2023-05-22T09:21:05;96224.94;;;28.17;68.63
32933;BME280;19444;50.518;10.870;2023-05-22T09:24:17;96233.97;;;28.82;53.05
32933;BME280;19444;50.518;10.870;2023-05-22T09:27:14;96208.63;;;29.16;45.00
32933;BME280;19444;50.518;10.870;2023-05-22T09:30:16;96209.59;;;28.81;44.38
32933;BME280;19444;50.518;10.870;2023-05-22T09:33:13;96213.47;;;28.67;42.13
32933;BME280;19444;50.518;10.870;2023-05-22T09:36:12;96210.59;;;28.71;43.07
32933;BME280;19444;50.518;10.870;2023-05-22T09:39:09;96208.78;;;29.55;39.47
32933;BME280;19444;50.518;10.870;2023-05-22T09:42:10;96214.34;;;29.38;53.36
32933;BME280;19444;50.518;10.870;2023-05-22T09:45:08;96199.78;;;29.09;39.73
32933;BME280;19444;50.518;10.870;2023-05-22T09:48:08;96206.97;;;29.48;43.91
32933;BME280;19444;50.518;10.870;2023-05-22T09:51:06;96198.31;;;29.04;46.45
32933;BME280;19444;50.518;10.870;2023-05-22T09:54:07;96196.09;;;30.34;40.29
32933;BME280;19444;50.518;10.870;2023-05-22T09:57:05;96201.59;;;30.34;42.08
32933;BME280;19444;50.518;10.870;2023-05-22T10:00:07;96200.78;;;29.15;43.75
32933;BME280;19444;50.518;10.870;2023-05-22T10:03:09;96193.53;;;29.63;48.54
32933;BME280;19444;50.518;10.870;2023-05-22T10:06:12;96199.19;;;28.40;38.74
32933;BME280;19444;50.518;10.870;2023-05-22T10:09:15;96196.44;;;30.23;52.95
32933;BME280;19444;50.518;10.870;2023-05-22T10:12:16;96195.88;;;29.77;40.51
32933;BME280;19444;50.518;10.870;2023-05-22T10:15:16;96201.75;;;29.37;49.98
32933;BME280;19444;50.518;10.870;2023-05-22T10:18:15;96184.66;;;28.84;42.03
32933;BME280;19444;50.518;10.870;2023-05-22T10:21:14;96185.69;;;28.29;39.59
32933;BME280;19444;50.518;10.870;2023-05-22T10:24:12;96190.22;;;28.19;40.59
32933;BME280;19444;50.518;10.870;2023-05-22T10:27:09;96182.69;;;28.69;42.00
32933;BME280;19444;50.518;10.870;2023-05-22T10:33:43;96179.97;;;29.81;41.64
32933;BME280;19444;50.518;10.870;2023-05-22T10:37:36;96181.00;;;29.45;42.93
32933;BME280;19444;50.518;10.870;2023-05-22T10:40:36;96178.16;;;29.49;39.11
32933;BME280;19444;50.518;10.870;2023-05-22T10:43:41;96190.34;;;28.94;40.77
32933;BME280;19444;50.518;10.870;2023-05-22T10:46:48;96185.16;;;29.92;41.09
32933;BME280;19444;50.518;10.870;2023-05-22T10:49:45;96180.72;;;30.33;46.97
32933;BME280;19444;50.518;10.870;2023-05-22T10:52:43;96178.28;;;30.35;42.96
32933;BME280;19444;50.518;10.870;2023-05-22T10:55:53;96175.63;;;30.06;57.08
32933;BME280;19444;50.518;10.870;2023-05-22T10:59:00;96176.75;;;29.57;61.75
32933;BME280;19444;50.518;10.870;2023-05-22T11:02:04;96179.97;;;28.98;49.25
32933;BME280;19444;50.518;10.870;2023-05-22T11:11:29;96175.31;;;28.66;60.56
32933;BME280;19444;50.518;10.870;2023-05-22T11:14:26;96175.63;;;28.68;59.32
32933;BME280;19444;50.518;10.870;2023-05-22T11:17:38;96179.50;;;27.89;49.79
32933;BME280;19444;50.518;10.870;2023-05-22T11:20:39;96179.41;;;28.45;54.20
32933;BME280;19444;50.518;10.870;2023-05-22T11:23:37;96176.19;;;28.46;60.01
32933;BME280;19444;50.518;10.870;2023-05-22T11:26:34;96175.06;;;28.11;52.36
32933;BME280;19444;50.518;10.870;2023-05-22T11:29:31;96175.16;;;28.85;48.14
32933;BME280;19444;50.518;10.870;2023-05-22T11:32:28;96168.25;;;29.77;47.59
32933;BME280;19444;50.518;10.870;2023-05-22T11:35:26;96162.78;;;31.50;43.65
32933;BME280;19444;50.518;10.870;2023-05-22T11:38:25;96146.03;;;31.54;42.68
32933;BME280;19444;50.518;10.870;2023-05-22T11:41:23;96143.44;;;32.40;40.51
32933;BME280;19444;50.518;10.870;2023-05-22T11:44:20;96145.75;;;32.50;41.58
32933;BME280;19444;50.518;10.870;2023-05-22T11:47:17;96144.97;;;32.41;38.99
32933;BME280;19444;50.518;10.870;2023-05-22T11:50:14;96144.53;;;32.51;38.80
32933;BME280;19444;50.518;10.870;2023-05-22T11:53:25;96137.31;;;31.33;42.26
32933;BME280;19444;50.518;10.870;2023-05-22T11:56:22;96141.00;;;32.78;38.52
32933;BME280;19444;50.518;10.870;2023-05-22T11:59:20;96135.28;;;33.09;38.31
32933;BME280;19444;50.518;10.870;2023-05-22T12:02:18;96137.44;;;32.60;35.27
32933;BME280;19444;50.518;10.870;2023-05-22T12:05:15;96133.50;;;31.40;38.31
32933;BME280;19444;50.518;10.870;2023-05-22T12:08:12;96126.81;;;33.13;47.86
32933;BME280;19444;50.518;10.870;2023-05-22T12:11:10;96130.66;;;31.84;36.11
32933;BME280;19444;50.518;10.870;2023-05-22T12:14:10;96125.88;;;31.84;38.15
32933;BME280;19444;50.518;10.870;2023-05-22T12:17:12;96116.63;;;32.46;39.79
32933;BME280;19444;50.518;10.870;2023-05-22T12:20:12;96110.69;;;34.44;40.88
32933;BME280;19444;50.518;10.870;2023-05-22T12:23:24;96117.22;;;33.14;36.71
32933;BME280;19444;50.518;10.870;2023-05-22T12:26:21;96112.22;;;32.08;32.02
32933;BME280;19444;50.518;10.870;2023-05-22T12:29:22;96111.25;;;31.84;33.75
32933;BME280;19444;50.518;10.870;2023-05-22T12:32:20;96109.16;;;33.44;53.75
32933;BME280;19444;50.518;10.870;2023-05-22T12:35:18;96103.03;;;33.21;38.06
32933;BME280;19444;50.518;10.870;2023-05-22T12:38:15;96100.91;;;30.56;36.15
32933;BME280;19444;50.518;10.870;2023-05-22T12:41:12;96114.38;;;29.31;35.74
32933;BME280;19444;50.518;10.870;2023-05-22T12:44:09;96102.81;;;31.03;39.62
32933;BME280;19444;50.518;10.870;2023-05-22T12:47:06;96100.78;;;32.46;41.18
32933;BME280;19444;50.518;10.870;2023-05-22T12:50:03;96099.97;;;33.01;33.79
32933;BME280;19444;50.518;10.870;2023-05-22T12:53:01;96086.69;;;34.85;34.28
32933;BME280;19444;50.518;10.870;2023-05-22T12:55:58;96086.81;;;34.04;43.48
32933;BME280;19444;50.518;10.870;2023-05-22T12:58:56;96071.59;;;34.62;30.94
32933;BME280;19444;50.518;10.870;2023-05-22T13:01:53;96083.91;;;32.22;33.76
32933;BME280;19444;50.518;10.870;2023-05-22T13:04:53;96089.81;;;33.58;44.45
32933;BME280;19444;50.518;10.870;2023-05-22T13:07:50;96084.28;;;33.82;29.86
32933;BME280;19444;50.518;10.870;2023-05-22T13:10:47;96088.72;;;31.10;33.26
32933;BME280;19444;50.518;10.870;2023-05-22T13:13:44;96083.41;;;31.25;38.24
32933;BME280;19444;50.518;10.870;2023-05-22T13:16:41;96086.94;;;30.73;38.83
32933;BME280;19444;50.518;10.870;2023-05-22T13:19:38;96082.03;;;32.01;54.93
32933;BME280;19444;50.518;10.870;2023-05-22T13:22:35;96082.44;;;30.53;42.40
32933;BME280;19444;50.518;10.870;2023-05-22T13:25:32;96079.19;;;31.42;44.86
32933;BME280;19444;50.518;10.870;2023-05-22T13:28:29;96078.19;;;30.74;40.64
32933;BME280;19444;50.518;10.870;2023-05-22T13:31:26;96076.03;;;31.62;37.08
32933;BME280;19444;50.518;10.870;2023-05-22T13:34:23;96069.56;;;31.56;37.39
32933;BME280;19444;50.518;10.870;2023-05-22T13:37:21;96074.72;;;31.45;48.87
32933;BME280;19444;50.518;10.870;2023-05-22T13:40:18;96075.50;;;29.89;48.56
32933;BME280;19444;50.518;10.870;2023-05-22T13:43:15;96069.25;;;29.50;41.95
32933;BME280;19444;50.518;10.870;2023-05-22T13:46:12;96070.81;;;29.51;48.03
32933;BME280;19444;50.518;10.870;2023-05-22T13:49:09;96065.84;;;29.59;54.21
32933;BME280;19444;50.518;10.870;2023-05-22T13:52:06;96071.88;;;28.45;49.58
32933;BME280;19444;50.518;10.870;2023-05-22T13:55:03;96070.75;;;29.13;73.76
32933;BME280;19444;50.518;10.870;2023-05-22T13:58:00;96069.28;;;27.92;44.39
32933;BME280;19444;50.518;10.870;2023-05-22T14:00:57;96070.88;;;26.85;50.03
32933;BME280;19444;50.518;10.870;2023-05-22T14:03:54;96063.81;;;27.40;50.43
32933;BME280;19444;50.518;10.870;2023-05-22T14:06:51;96068.09;;;27.41;52.48
32933;BME280;19444;50.518;10.870;2023-05-22T14:09:48;96061.16;;;28.63;50.19
32933;BME280;19444;50.518;10.870;2023-05-22T14:12:45;96077.03;;;27.81;48.82
32933;BME280;19444;50.518;10.870;2023-05-22T14:15:42;96071.50;;;27.97;44.83
32933;BME280;19444;50.518;10.870;2023-05-22T14:18:42;96068.91;;;29.61;52.37
32933;BME280;19444;50.518;10.870;2023-05-22T14:21:39;96060.91;;;30.48;39.74
32933;BME280;19444;50.518;10.870;2023-05-22T14:24:36;96062.19;;;31.22;39.17
32933;BME280;19444;50.518;10.870;2023-05-22T14:27:33;96064.06;;;31.03;36.54
32933;BME280;19444;50.518;10.870;2023-05-22T14:30:29;96079.41;;;29.79;42.22
32933;BME280;19444;50.518;10.870;2023-05-22T14:33:26;96078.09;;;28.16;48.30
32933;BME280;19444;50.518;10.870;2023-05-22T14:36:23;96078.63;;;28.11;53.66
32933;BME280;19444;50.518;10.870;2023-05-22T14:39:20;96072.41;;;27.42;51.01
32933;BME280;19444;50.518;10.870;2023-05-22T14:42:17;96066.81;;;27.29;54.15
32933;BME280;19444;50.518;10.870;2023-05-22T14:45:14;96071.69;;;27.21;62.53
32933;BME280;19444;50.518;10.870;2023-05-22T14:48:11;96070.91;;;27.73;58.98
32933;BME280;19444;50.518;10.870;2023-05-22T14:51:08;96055.75;;;27.98;57.38
32933;BME280;19444;50.518;10.870;2023-05-22T14:54:05;96055.91;;;27.42;59.95
32933;BME280;19444;50.518;10.870;2023-05-22T14:57:02;96053.38;;;26.35;65.91
32933;BME280;19444;50.518;10.870;2023-05-22T15:00:00;96043.78;;;28.04;56.32
32933;BME280;19444;50.518;10.870;2023-05-22T15:02:57;96046.50;;;27.07;57.48
32933;BME280;19444;50.518;10.870;2023-05-22T15:05:54;96043.34;;;28.06;51.35
32933;BME280;19444;50.518;10.870;2023-05-22T15:08:53;96038.13;;;28.41;52.34
32933;BME280;19444;50.518;10.870;2023-05-22T15:11:50;96032.41;;;28.48;55.90
32933;BME280;19444;50.518;10.870;2023-05-22T15:14:47;96034.81;;;28.17;55.94
32933;BME280;19444;50.518;10.870;2023-05-22T15:17:44;96039.44;;;27.22;54.91
32933;BME280;19444;50.518;10.870;2023-05-22T15:20:41;96042.13;;;27.26;57.19
32933;BME280;19444;50.518;10.870;2023-05-22T15:23:38;96042.91;;;27.26;56.34
32933;BME280;19444;50.518;10.870;2023-05-22T15:26:35;96039.66;;;27.96;57.91
32933;BME280;19444;50.518;10.870;2023-05-22T15:29:32;96043.56;;;28.28;54.32
32933;BME280;19444;50.518;10.870;2023-05-22T15:32:31;96046.34;;;28.57;52.38
32933;BME280;19444;50.518;10.870;2023-05-22T15:35:28;96029.50;;;29.60;50.43
32933;BME280;19444;50.518;10.870;2023-05-22T15:38:26;96038.47;;;27.65;53.04
32933;BME280;19444;50.518;10.870;2023-05-22T15:41:24;96035.34;;;29.75;53.51
32933;BME280;19444;50.518;10.870;2023-05-22T15:44:21;96034.13;;;29.25;54.25
32933;BME280;19444;50.518;10.870;2023-05-22T15:47:18;96038.00;;;29.53;49.82